createdAt,value
2018-08-02T00:00:30.731Z,22.08
2018-08-02T00:01:32.122Z,22.12
2018-08-02T00:02:33.517Z,22.11
2018-08-02T00:03:34.906Z,22.09
2018-08-02T00:04:36.303Z,22.20
2018-08-02T00:05:37.684Z,22.15
2018-08-02T00:06:39.080Z,22.17
2018-08-02T00:07:40.474Z,22.21
2018-08-02T00:08:41.879Z,22.19
2018-08-02T00:09:43.285Z,22.12
2018-08-02T00:10:44.707Z,22.17
2018-08-02T00:11:46.090Z,22.14
2018-08-02T00:12:47.487Z,22.12
2018-08-02T00:13:48.889Z,22.19
2018-08-02T00:14:50.275Z,22.17
2018-08-02T00:15:51.677Z,22.23
2018-08-02T00:16:53.074Z,22.15
2018-08-02T00:17:54.469Z,22.20
2018-08-02T00:18:55.864Z,22.24
2018-08-02T00:19:57.248Z,22.29
2018-08-02T00:20:58.653Z,22.23
2018-08-02T00:22:00.050Z,22.21
2018-08-02T00:23:01.429Z,22.24
2018-08-02T00:24:02.809Z,22.38
2018-08-02T00:25:04.195Z,22.29
2018-08-02T00:26:05.593Z,22.27
2018-08-02T00:27:07.010Z,22.30
2018-08-02T00:28:08.403Z,22.23
2018-08-02T00:29:10.561Z,22.21
2018-08-02T00:30:11.969Z,22.36
2018-08-02T00:31:13.352Z,22.29
2018-08-02T00:32:14.780Z,22.21
2018-08-02T00:33:16.157Z,22.21
2018-08-02T00:34:17.560Z,22.26
2018-08-02T00:35:18.944Z,22.27
2018-08-02T00:36:20.338Z,22.30
2018-08-02T00:37:21.756Z,22.27
2018-08-02T00:38:23.151Z,22.35
2018-08-02T00:39:24.537Z,22.36
2018-08-02T00:40:25.933Z,22.31
2018-08-02T00:41:27.328Z,22.39
2018-08-02T00:42:28.717Z,22.42
2018-08-02T00:43:30.123Z,22.41
2018-08-02T00:44:31.531Z,22.48
2018-08-02T00:45:32.925Z,22.51
2018-08-02T00:46:34.313Z,22.46
2018-08-02T00:47:35.714Z,22.51
2018-08-02T00:48:37.103Z,22.51
2018-08-02T00:49:38.499Z,22.63
2018-08-02T00:50:39.929Z,22.67
2018-08-02T00:51:41.308Z,22.63
2018-08-02T00:52:42.701Z,22.64
2018-08-02T00:53:44.198Z,22.66
2018-08-02T00:54:45.536Z,22.64
2018-08-02T00:55:46.866Z,22.61
2018-08-02T00:56:48.264Z,22.69
2018-08-02T00:57:49.662Z,22.61
2018-08-02T00:58:51.062Z,22.69
2018-08-02T00:59:52.448Z,22.70
2018-08-02T01:00:53.832Z,22.66
2018-08-02T01:01:55.239Z,22.70
2018-08-02T01:02:56.621Z,22.70
2018-08-02T01:03:58.011Z,22.63
2018-08-02T01:04:59.398Z,22.74
2018-08-02T01:06:01.435Z,22.66
2018-08-02T01:07:02.834Z,22.72
2018-08-02T01:08:04.226Z,22.67
2018-08-02T01:09:05.611Z,22.66
2018-08-02T01:10:07.008Z,22.70
2018-08-02T01:11:08.389Z,22.72
2018-08-02T01:12:09.786Z,22.69
2018-08-02T01:13:11.172Z,22.72
2018-08-02T01:14:12.554Z,22.66
2018-08-02T01:15:13.948Z,22.60
2018-08-02T01:16:15.333Z,22.61
2018-08-02T01:17:16.730Z,22.70
2018-08-02T01:18:18.120Z,22.72
2018-08-02T01:19:19.537Z,22.67
2018-08-02T01:20:20.913Z,22.67
2018-08-02T01:21:22.310Z,22.66
2018-08-02T01:22:23.698Z,22.63
2018-08-02T01:23:25.129Z,22.66
2018-08-02T01:24:26.524Z,22.63
2018-08-02T01:25:27.912Z,22.67
2018-08-02T01:26:30.194Z,22.72
2018-08-02T01:27:31.580Z,22.69
2018-08-02T01:28:32.977Z,22.67
2018-08-02T01:29:34.365Z,22.60
2018-08-02T01:30:35.757Z,22.56
2018-08-02T01:31:37.153Z,22.52
2018-08-02T01:32:38.536Z,22.52
2018-08-02T01:33:39.930Z,22.38
2018-08-02T01:34:41.313Z,22.42
2018-08-02T01:35:42.707Z,22.38
2018-08-02T01:36:44.093Z,22.39
2018-08-02T01:37:45.487Z,22.26
2018-08-02T01:38:46.875Z,22.29
2018-08-02T01:39:48.270Z,22.29
2018-08-02T01:40:49.663Z,22.30
2018-08-02T01:41:51.053Z,22.23
2018-08-02T01:42:52.445Z,22.23
2018-08-02T01:43:53.898Z,22.12
2018-08-02T01:44:55.231Z,22.15
2018-08-02T01:45:56.625Z,22.14
2018-08-02T01:46:58.019Z,22.02
2018-08-02T01:47:59.414Z,21.96
2018-08-02T01:49:00.788Z,21.91
2018-08-02T01:50:02.218Z,21.83
2018-08-02T01:51:03.543Z,21.86
2018-08-02T01:52:04.928Z,21.86
2018-08-02T01:53:06.322Z,21.77
2018-08-02T01:54:07.700Z,21.77
2018-08-02T01:55:09.094Z,21.68
2018-08-02T01:56:10.488Z,21.74
2018-08-02T01:57:11.884Z,21.68
2018-08-02T01:58:13.270Z,21.64
2018-08-02T01:59:14.674Z,21.64
2018-08-02T02:00:16.076Z,21.53
2018-08-02T02:01:17.467Z,21.56
2018-08-02T02:02:18.858Z,21.51
2018-08-02T02:03:20.245Z,21.49
2018-08-02T02:04:21.636Z,21.56
2018-08-02T02:05:23.031Z,21.48
2018-08-02T02:06:24.427Z,21.53
2018-08-02T02:07:25.823Z,21.48
2018-08-02T02:08:27.212Z,21.43
2018-08-02T02:09:28.619Z,21.40
2018-08-02T02:10:30.010Z,21.42
2018-08-02T02:11:32.363Z,21.40
2018-08-02T02:12:33.767Z,21.40
2018-08-02T02:13:35.160Z,21.38
2018-08-02T02:14:36.543Z,21.34
2018-08-02T02:15:37.952Z,21.43
2018-08-02T02:16:39.321Z,21.38
2018-08-02T02:17:40.721Z,21.37
2018-08-02T02:18:42.099Z,21.33
2018-08-02T02:19:43.500Z,21.34
2018-08-02T02:20:45.843Z,21.33
2018-08-02T02:21:47.239Z,21.30
2018-08-02T02:22:48.624Z,21.34
2018-08-02T02:23:50.032Z,21.38
2018-08-02T02:24:51.420Z,21.28
2018-08-02T02:25:52.802Z,21.24
2018-08-02T02:26:54.198Z,21.31
2018-08-02T02:27:55.584Z,21.24
2018-08-02T02:28:56.956Z,21.15
2018-08-02T02:29:58.342Z,21.18
2018-08-02T02:30:59.755Z,21.28
2018-08-02T02:32:01.143Z,21.24
2018-08-02T02:33:02.539Z,21.30
2018-08-02T02:34:03.935Z,21.22
2018-08-02T02:35:06.279Z,21.24
2018-08-02T02:36:07.669Z,21.22
2018-08-02T02:37:09.052Z,21.12
2018-08-02T02:38:10.441Z,21.15
2018-08-02T02:39:11.829Z,21.19
2018-08-02T02:40:13.213Z,21.19
2018-08-02T02:41:14.603Z,21.21
2018-08-02T02:42:16.001Z,21.15
2018-08-02T02:43:17.391Z,21.21
2018-08-02T02:44:18.771Z,21.08
2018-08-02T02:45:20.150Z,21.05
2018-08-02T02:46:21.556Z,21.09
2018-08-02T02:47:22.936Z,21.00
2018-08-02T02:48:24.334Z,21.12
2018-08-02T02:49:25.742Z,21.08
2018-08-02T02:50:27.129Z,21.06
2018-08-02T02:51:28.494Z,21.05
2018-08-02T02:52:29.890Z,21.05
2018-08-02T02:53:31.284Z,20.98
2018-08-02T02:54:32.656Z,21.00
2018-08-02T02:55:34.051Z,21.00
2018-08-02T02:56:35.447Z,21.01
2018-08-02T02:57:36.827Z,20.96
2018-08-02T02:58:38.217Z,20.85
2018-08-02T02:59:39.604Z,20.83
2018-08-02T03:00:41.507Z,20.81
2018-08-02T03:01:42.900Z,20.82
2018-08-02T03:02:44.351Z,20.79
2018-08-02T03:03:45.735Z,20.68
2018-08-02T03:04:47.123Z,20.72
2018-08-02T03:05:48.517Z,20.66
2018-08-02T03:06:49.901Z,20.72
2018-08-02T03:07:51.296Z,20.69
2018-08-02T03:08:52.708Z,20.72
2018-08-02T03:09:54.090Z,20.66
2018-08-02T03:10:55.474Z,20.64
2018-08-02T03:11:56.872Z,20.61
2018-08-02T03:12:58.299Z,20.61
2018-08-02T03:13:59.604Z,20.51
2018-08-02T03:15:00.986Z,20.57
2018-08-02T03:16:02.384Z,20.61
2018-08-02T03:17:03.782Z,20.51
2018-08-02T03:18:05.182Z,20.61
2018-08-02T03:19:06.571Z,20.53
2018-08-02T03:20:07.953Z,20.51
2018-08-02T03:21:09.342Z,20.51
2018-08-02T03:22:10.743Z,20.51
2018-08-02T03:23:13.024Z,20.53
2018-08-02T03:24:14.424Z,20.42
2018-08-02T03:25:15.811Z,20.38
2018-08-02T03:26:17.208Z,20.38
2018-08-02T03:27:18.597Z,20.34
2018-08-02T03:28:19.999Z,20.37
2018-08-02T03:29:21.384Z,20.40
2018-08-02T03:30:22.776Z,20.38
2018-08-02T03:31:24.164Z,20.41
2018-08-02T03:32:25.552Z,20.31
2018-08-02T03:33:26.941Z,20.38
2018-08-02T03:34:28.358Z,20.33
2018-08-02T03:35:29.752Z,20.35
2018-08-02T03:36:31.149Z,20.30
2018-08-02T03:37:32.529Z,20.33
2018-08-02T03:38:33.929Z,20.19
2018-08-02T03:39:35.318Z,20.20
2018-08-02T03:40:36.716Z,20.27
2018-08-02T03:41:38.090Z,20.33
2018-08-02T03:42:39.489Z,20.25
2018-08-02T03:43:40.882Z,20.23
2018-08-02T03:44:42.268Z,20.20
2018-08-02T03:45:43.662Z,20.31
2018-08-02T03:46:45.045Z,20.31
2018-08-02T03:47:46.433Z,20.31
2018-08-02T03:48:47.835Z,20.35
2018-08-02T03:49:49.232Z,20.31
2018-08-02T03:50:50.620Z,20.33
2018-08-02T03:51:52.016Z,20.27
2018-08-02T03:52:53.407Z,20.30
2018-08-02T03:53:54.791Z,20.33
2018-08-02T03:54:56.187Z,20.30
2018-08-02T03:55:57.603Z,20.30
2018-08-02T03:56:59.001Z,20.25
2018-08-02T03:58:00.387Z,20.33
2018-08-02T03:59:01.779Z,20.25
2018-08-02T04:00:03.161Z,20.33
2018-08-02T04:01:04.568Z,20.26
2018-08-02T04:02:05.947Z,20.33
2018-08-02T04:03:07.346Z,20.31
2018-08-02T04:04:08.737Z,20.25
2018-08-02T04:05:10.147Z,20.25
2018-08-02T04:06:11.550Z,20.23
2018-08-02T04:07:12.939Z,20.16
2018-08-02T04:08:14.318Z,20.15
2018-08-02T04:09:15.703Z,20.17
2018-08-02T04:10:17.724Z,20.15
2018-08-02T04:11:19.113Z,20.23
2018-08-02T04:12:20.518Z,20.10
2018-08-02T04:13:21.912Z,20.13
2018-08-02T04:14:23.288Z,20.13
2018-08-02T04:15:24.688Z,20.15
2018-08-02T04:16:26.073Z,20.12
2018-08-02T04:17:27.458Z,20.10
2018-08-02T04:18:28.850Z,20.08
2018-08-02T04:19:30.242Z,20.10
2018-08-02T04:20:31.624Z,20.13
2018-08-02T04:21:33.014Z,20.10
2018-08-02T04:22:34.407Z,20.17
2018-08-02T04:23:35.796Z,20.16
2018-08-02T04:24:37.181Z,20.13
2018-08-02T04:25:38.574Z,20.25
2018-08-02T04:26:39.984Z,20.12
2018-08-02T04:27:41.352Z,20.19
2018-08-02T04:28:42.747Z,20.23
2018-08-02T04:29:44.141Z,20.15
2018-08-02T04:30:45.547Z,20.20
2018-08-02T04:31:46.949Z,20.20
2018-08-02T04:32:48.329Z,20.22
2018-08-02T04:33:49.782Z,20.30
2018-08-02T04:34:51.109Z,20.33
2018-08-02T04:35:52.503Z,20.31
2018-08-02T04:36:53.887Z,20.38
2018-08-02T04:37:55.284Z,20.34
2018-08-02T04:38:56.668Z,20.34
2018-08-02T04:39:58.086Z,20.37
2018-08-02T04:40:59.504Z,20.54
2018-08-02T04:42:00.892Z,20.51
2018-08-02T04:43:02.280Z,20.57
2018-08-02T04:44:03.694Z,20.48
2018-08-02T04:45:05.082Z,20.44
2018-08-02T04:46:06.514Z,20.60
2018-08-02T04:47:07.921Z,20.56
2018-08-02T04:48:09.299Z,20.54
2018-08-02T04:49:10.718Z,20.54
2018-08-02T04:50:12.127Z,20.56
2018-08-02T04:51:13.515Z,20.58
2018-08-02T04:52:14.910Z,20.61
2018-08-02T04:53:16.321Z,20.66
2018-08-02T04:54:17.717Z,20.73
2018-08-02T04:55:19.097Z,20.66
2018-08-02T04:56:20.491Z,20.73
2018-08-02T04:57:21.889Z,20.69
2018-08-02T04:58:23.272Z,20.69
2018-08-02T04:59:24.675Z,20.72
2018-08-02T05:00:26.068Z,20.75
2018-08-02T05:01:27.467Z,20.73
2018-08-02T05:02:28.859Z,20.72
2018-08-02T05:03:30.271Z,20.78
2018-08-02T05:04:31.656Z,20.81
2018-08-02T05:05:33.097Z,20.82
2018-08-02T05:06:34.495Z,20.85
2018-08-02T05:07:35.892Z,20.93
2018-08-02T05:08:37.280Z,20.88
2018-08-02T05:09:38.676Z,20.85
2018-08-02T05:10:40.117Z,20.90
2018-08-02T05:11:41.518Z,20.83
2018-08-02T05:12:42.898Z,20.81
2018-08-02T05:13:44.307Z,20.78
2018-08-02T05:14:45.715Z,20.82
2018-08-02T05:15:47.121Z,20.76
2018-08-02T05:16:48.509Z,20.79
2018-08-02T05:17:49.895Z,20.83
2018-08-02T05:18:51.305Z,20.81
2018-08-02T05:19:52.703Z,20.81
2018-08-02T05:20:54.128Z,20.83
2018-08-02T05:21:55.513Z,20.88
2018-08-02T05:22:56.902Z,20.85
2018-08-02T05:23:58.319Z,20.87
2018-08-02T05:24:59.707Z,20.87
2018-08-02T05:26:01.104Z,20.94
2018-08-02T05:27:02.529Z,20.98
2018-08-02T05:28:03.928Z,20.97
2018-08-02T05:29:05.320Z,20.97
2018-08-02T05:30:06.779Z,21.03
2018-08-02T05:31:08.190Z,21.03
2018-08-02T05:32:09.652Z,21.00
2018-08-02T05:33:11.052Z,21.01
2018-08-02T05:34:12.476Z,21.08
2018-08-02T05:35:13.885Z,21.05
2018-08-02T05:36:15.661Z,21.01
2018-08-02T05:37:16.630Z,20.88
2018-08-02T05:38:18.040Z,20.96
2018-08-02T05:39:19.441Z,20.94
2018-08-02T05:40:20.836Z,20.98
2018-08-02T05:41:22.223Z,20.98
2018-08-02T05:42:23.626Z,20.98
2018-08-02T05:43:25.021Z,21.05
2018-08-02T05:44:26.439Z,20.98
2018-08-02T05:45:27.823Z,21.05
2018-08-02T05:46:29.225Z,20.96
2018-08-02T05:47:30.618Z,21.06
2018-08-02T05:48:32.007Z,21.03
2018-08-02T05:49:33.410Z,21.11
2018-08-02T05:50:34.795Z,21.01
2018-08-02T05:51:36.272Z,21.09
2018-08-02T05:52:37.612Z,21.19
2018-08-02T05:53:39.005Z,21.08
2018-08-02T05:54:40.391Z,21.08
2018-08-02T05:55:41.819Z,21.12
2018-08-02T05:56:43.200Z,21.15
2018-08-02T05:57:44.590Z,21.15
2018-08-02T05:58:46.018Z,21.08
2018-08-02T05:59:47.407Z,21.03
2018-08-02T06:00:48.796Z,21.12
2018-08-02T06:01:50.218Z,21.08
2018-08-02T06:02:51.618Z,21.09
2018-08-02T06:03:53.014Z,21.05
2018-08-02T06:04:54.416Z,21.06
2018-08-02T06:05:55.809Z,21.15
2018-08-02T06:06:57.213Z,21.08
2018-08-02T06:07:58.651Z,21.13
2018-08-02T06:09:00.047Z,21.08
2018-08-02T06:10:01.436Z,21.11
2018-08-02T06:11:02.837Z,21.11
2018-08-02T06:12:04.245Z,21.11
2018-08-02T06:13:05.643Z,21.12
2018-08-02T06:14:07.035Z,21.15
2018-08-02T06:15:08.453Z,21.27
2018-08-02T06:16:09.868Z,21.15
2018-08-02T06:17:11.269Z,21.22
2018-08-02T06:18:12.653Z,21.27
2018-08-02T06:19:14.062Z,21.24
2018-08-02T06:20:15.462Z,21.27
2018-08-02T06:21:16.865Z,21.28
2018-08-02T06:22:18.259Z,21.31
2018-08-02T06:23:19.643Z,21.27
2018-08-02T06:24:21.039Z,21.38
2018-08-02T06:25:22.438Z,21.38
2018-08-02T06:26:23.831Z,21.30
2018-08-02T06:27:25.225Z,21.27
2018-08-02T06:28:26.645Z,21.31
2018-08-02T06:29:28.024Z,21.27
2018-08-02T06:30:29.419Z,21.24
2018-08-02T06:31:30.814Z,21.33
2018-08-02T06:32:32.206Z,21.31
2018-08-02T06:33:33.605Z,21.38
2018-08-02T06:34:35.030Z,21.37
2018-08-02T06:35:36.420Z,21.28
2018-08-02T06:36:38.384Z,21.36
2018-08-02T06:37:39.780Z,21.37
2018-08-02T06:38:41.184Z,21.40
2018-08-02T06:39:42.561Z,21.36
2018-08-02T06:40:43.979Z,21.36
2018-08-02T06:41:45.385Z,21.37
2018-08-02T06:42:46.768Z,21.43
2018-08-02T06:43:48.172Z,21.42
2018-08-02T06:44:49.585Z,21.52
2018-08-02T06:45:51.030Z,21.58
2018-08-02T06:46:52.379Z,21.56
2018-08-02T06:47:53.783Z,21.64
2018-08-02T06:48:55.167Z,21.63
2018-08-02T06:49:56.577Z,21.64
2018-08-02T06:50:57.950Z,21.70
2018-08-02T06:51:59.359Z,21.74
2018-08-02T06:53:00.758Z,21.71
2018-08-02T06:54:02.139Z,21.68
2018-08-02T06:55:03.532Z,21.68
2018-08-02T06:56:04.947Z,21.73
2018-08-02T06:57:06.334Z,21.73
2018-08-02T06:58:07.724Z,21.75
2018-08-02T06:59:09.149Z,21.74
2018-08-02T07:00:10.536Z,21.71
2018-08-02T07:01:11.930Z,21.71
2018-08-02T07:02:13.382Z,21.82
2018-08-02T07:03:14.765Z,21.74
2018-08-02T07:04:16.159Z,21.77
2018-08-02T07:05:17.565Z,21.86
2018-08-02T07:06:18.969Z,21.81
2018-08-02T07:07:20.359Z,21.85
2018-08-02T07:08:21.765Z,21.81
2018-08-02T07:09:23.185Z,21.82
2018-08-02T07:10:24.567Z,21.90
2018-08-02T07:11:25.959Z,21.82
2018-08-02T07:12:27.402Z,21.82
2018-08-02T07:13:28.809Z,21.89
2018-08-02T07:14:30.220Z,21.93
2018-08-02T07:15:31.606Z,21.90
2018-08-02T07:16:33.015Z,21.99
2018-08-02T07:17:34.400Z,21.90
2018-08-02T07:18:35.795Z,21.94
2018-08-02T07:19:37.199Z,21.91
2018-08-02T07:20:38.628Z,21.99
2018-08-02T07:21:40.726Z,21.99
2018-08-02T07:22:42.136Z,22.14
2018-08-02T07:23:43.552Z,22.14
2018-08-02T07:24:44.941Z,22.09
2018-08-02T07:25:46.334Z,22.24
2018-08-02T07:26:47.724Z,22.38
2018-08-02T07:27:49.126Z,22.26
2018-08-02T07:28:50.538Z,22.39
2018-08-02T07:29:51.912Z,22.52
2018-08-02T07:30:53.312Z,22.57
2018-08-02T07:31:54.719Z,22.61
2018-08-02T07:32:56.107Z,22.66
2018-08-02T07:33:57.510Z,22.67
2018-08-02T07:34:58.897Z,22.79
2018-08-02T07:36:00.289Z,22.82
2018-08-02T07:37:01.687Z,22.81
2018-08-02T07:38:03.073Z,22.91
2018-08-02T07:39:04.498Z,22.96
2018-08-02T07:40:05.877Z,22.91
2018-08-02T07:41:07.266Z,22.85
2018-08-02T07:42:08.678Z,22.93
2018-08-02T07:43:10.186Z,22.93
2018-08-02T07:44:11.544Z,23.04
2018-08-02T07:45:12.856Z,23.14
2018-08-02T07:46:14.238Z,23.16
2018-08-02T07:47:16.447Z,23.26
2018-08-02T07:48:17.838Z,23.41
2018-08-02T07:49:19.236Z,23.50
2018-08-02T07:50:20.642Z,23.52
2018-08-02T07:51:22.943Z,23.47
2018-08-02T07:52:24.338Z,23.54
2018-08-02T07:53:25.734Z,23.63
2018-08-02T07:54:27.138Z,23.68
2018-08-02T07:55:28.538Z,23.77
2018-08-02T07:56:29.934Z,23.81
2018-08-02T07:57:31.338Z,23.84
2018-08-02T07:58:32.748Z,23.84
2018-08-02T07:59:34.141Z,23.87
2018-08-02T08:00:35.535Z,23.74
2018-08-02T08:01:36.937Z,23.71
2018-08-02T08:02:38.348Z,23.63
2018-08-02T08:03:39.752Z,23.60
2018-08-02T08:04:41.165Z,23.57
2018-08-02T08:05:42.557Z,23.50
2018-08-02T08:06:43.963Z,23.49
2018-08-02T08:07:45.379Z,23.42
2018-08-02T08:08:46.770Z,23.42
2018-08-02T08:09:48.159Z,23.44
2018-08-02T08:10:49.568Z,23.39
2018-08-02T08:11:50.961Z,23.45
2018-08-02T08:12:52.349Z,23.47
2018-08-02T08:13:53.746Z,23.47
2018-08-02T08:14:55.148Z,23.44
2018-08-02T08:15:56.637Z,23.50
2018-08-02T08:16:57.926Z,23.52
2018-08-02T08:17:59.321Z,23.47
2018-08-02T08:19:00.708Z,23.38
2018-08-02T08:20:02.146Z,23.41
2018-08-02T08:21:03.501Z,23.41
2018-08-02T08:22:04.896Z,23.45
2018-08-02T08:23:06.335Z,23.31
2018-08-02T08:24:08.477Z,23.32
2018-08-02T08:25:09.891Z,23.29
2018-08-02T08:26:11.267Z,23.31
2018-08-02T08:27:12.668Z,23.22
2018-08-02T08:28:14.077Z,23.21
2018-08-02T08:29:16.224Z,23.23
2018-08-02T08:30:17.628Z,23.26
2018-08-02T08:31:19.013Z,23.31
2018-08-02T08:32:20.433Z,23.35
2018-08-02T08:33:21.799Z,23.45
2018-08-02T08:34:23.197Z,23.41
2018-08-02T08:35:24.594Z,23.59
2018-08-02T08:36:26.009Z,23.53
2018-08-02T08:37:27.425Z,23.56
2018-08-02T08:38:28.806Z,23.60
2018-08-02T08:39:30.195Z,23.57
2018-08-02T08:40:31.642Z,23.56
2018-08-02T08:41:32.985Z,23.57
2018-08-02T08:42:34.386Z,23.57
2018-08-02T08:43:35.892Z,23.53
2018-08-02T08:44:38.049Z,23.60
2018-08-02T08:45:39.446Z,23.59
2018-08-02T08:46:40.856Z,23.52
2018-08-02T08:47:42.240Z,23.47
2018-08-02T08:48:43.640Z,23.47
2018-08-02T08:49:45.027Z,23.42
2018-08-02T08:50:46.473Z,23.34
2018-08-02T08:51:47.789Z,23.35
2018-08-02T08:52:49.186Z,23.37
2018-08-02T08:53:50.578Z,23.34
2018-08-02T08:54:51.982Z,23.32
2018-08-02T08:55:53.403Z,23.38
2018-08-02T08:56:55.545Z,23.41
2018-08-02T08:57:56.927Z,23.37
2018-08-02T08:58:58.315Z,23.32
2018-08-02T08:59:59.707Z,23.31
2018-08-02T09:01:01.109Z,23.32
2018-08-02T09:02:02.507Z,23.31
2018-08-02T09:03:03.964Z,23.32
2018-08-02T09:04:05.306Z,23.32
2018-08-02T09:05:06.705Z,23.29
2018-08-02T09:06:08.095Z,23.34
2018-08-02T09:07:09.489Z,23.34
2018-08-02T09:08:10.900Z,23.38
2018-08-02T09:09:12.292Z,23.45
2018-08-02T09:10:13.682Z,23.45
2018-08-02T09:11:15.090Z,23.45
2018-08-02T09:12:16.488Z,23.50
2018-08-02T09:13:17.878Z,23.57
2018-08-02T09:14:19.274Z,23.56
2018-08-02T09:15:20.667Z,23.57
2018-08-02T09:16:22.074Z,23.60
2018-08-02T09:17:23.452Z,23.72
2018-08-02T09:18:24.854Z,23.69
2018-08-02T09:19:26.258Z,23.81
2018-08-02T09:20:27.664Z,23.79
2018-08-02T09:21:29.050Z,23.74
2018-08-02T09:22:30.444Z,23.89
2018-08-02T09:23:31.846Z,23.92
2018-08-02T09:24:33.244Z,24.04
2018-08-02T09:25:34.676Z,23.96
2018-08-02T09:26:36.110Z,24.02
2018-08-02T09:27:37.471Z,24.02
2018-08-02T09:28:38.868Z,24.08
2018-08-02T09:29:40.260Z,24.00
2018-08-02T09:30:41.660Z,24.15
2018-08-02T09:31:43.067Z,24.14
2018-08-02T09:32:44.584Z,24.12
2018-08-02T09:33:45.816Z,24.24
2018-08-02T09:34:47.231Z,24.16
2018-08-02T09:35:48.617Z,24.21
2018-08-02T09:36:50.005Z,24.18
2018-08-02T09:37:51.403Z,24.09
2018-08-02T09:38:52.807Z,24.18
2018-08-02T09:39:54.212Z,24.27
2018-08-02T09:40:55.635Z,24.31
2018-08-02T09:41:57.047Z,24.39
2018-08-02T09:42:58.472Z,24.46
2018-08-02T09:43:59.981Z,24.42
2018-08-02T09:45:01.416Z,24.46
2018-08-02T09:46:02.850Z,24.51
2018-08-02T09:47:04.318Z,24.49
2018-08-02T09:48:05.699Z,24.48
2018-08-02T09:49:07.136Z,24.52
2018-08-02T09:50:08.565Z,24.52
2018-08-02T09:51:09.985Z,24.52
2018-08-02T09:52:11.406Z,24.48
2018-08-02T09:53:12.816Z,24.51
2018-08-02T09:54:14.222Z,24.51
2018-08-02T09:55:15.623Z,24.55
2018-08-02T09:56:17.193Z,24.53
2018-08-02T09:57:18.626Z,24.53
2018-08-02T09:58:20.037Z,24.51
2018-08-02T09:59:21.465Z,24.44
2018-08-02T10:00:22.873Z,24.44
2018-08-02T10:01:24.285Z,24.45
2018-08-02T10:02:25.709Z,24.45
2018-08-02T10:03:27.131Z,24.49
2018-08-02T10:04:28.559Z,24.51
2018-08-02T10:05:29.972Z,24.52
2018-08-02T10:06:31.362Z,24.51
2018-08-02T10:07:32.771Z,24.60
2018-08-02T10:08:34.203Z,24.75
2018-08-02T10:09:35.622Z,24.80
2018-08-02T10:10:37.072Z,24.83
2018-08-02T10:11:38.522Z,24.90
2018-08-02T10:12:39.952Z,25.01
2018-08-02T10:13:41.366Z,25.01
2018-08-02T10:14:42.756Z,25.23
2018-08-02T10:15:44.170Z,25.29
2018-08-02T10:16:45.597Z,25.26
2018-08-02T10:17:46.995Z,25.27
2018-08-02T10:18:48.422Z,25.35
2018-08-02T10:19:49.816Z,25.36
2018-08-02T10:20:53.204Z,25.51
2018-08-02T10:21:55.302Z,25.46
2018-08-02T10:22:56.922Z,25.45
2018-08-02T10:23:58.338Z,25.41
2018-08-02T10:24:59.764Z,25.41
2018-08-02T10:26:01.170Z,25.35
2018-08-02T10:27:02.643Z,25.41
2018-08-02T10:28:04.042Z,25.45
2018-08-02T10:29:05.448Z,25.39
2018-08-02T10:30:06.869Z,25.49
2018-08-02T10:31:08.274Z,25.46
2018-08-02T10:32:09.689Z,25.57
2018-08-02T10:33:11.074Z,25.63
2018-08-02T10:34:13.211Z,25.57
2018-08-02T10:35:14.624Z,25.64
2018-08-02T10:36:16.020Z,25.64
2018-08-02T10:37:17.436Z,25.71
2018-08-02T10:38:18.844Z,25.69
2018-08-02T10:39:20.249Z,25.69
2018-08-02T10:40:21.653Z,25.83
2018-08-02T10:41:23.062Z,25.76
2018-08-02T10:42:24.457Z,25.74
2018-08-02T10:43:25.876Z,25.74
2018-08-02T10:44:27.291Z,25.74
2018-08-02T10:45:28.693Z,25.76
2018-08-02T10:46:30.878Z,25.67
2018-08-02T10:47:32.279Z,25.53
2018-08-02T10:48:33.683Z,25.51
2018-08-02T10:49:35.085Z,25.56
2018-08-02T10:50:36.481Z,25.48
2018-08-02T10:51:37.886Z,25.45
2018-08-02T10:52:39.271Z,25.59
2018-08-02T10:53:40.690Z,25.66
2018-08-02T10:54:42.114Z,25.82
2018-08-02T10:55:43.524Z,25.91
2018-08-02T10:56:44.901Z,26.00
2018-08-02T10:57:46.293Z,26.19
2018-08-02T10:58:47.692Z,26.32
2018-08-02T10:59:49.086Z,26.46
2018-08-02T11:00:50.491Z,26.60
2018-08-02T11:01:51.886Z,26.73
2018-08-02T11:02:53.284Z,26.73
2018-08-02T11:03:54.677Z,26.83
2018-08-02T11:04:56.221Z,26.76
2018-08-02T11:05:57.630Z,26.79
2018-08-02T11:06:59.113Z,26.68
2018-08-02T11:08:00.475Z,26.75
2018-08-02T11:09:01.878Z,26.83
2018-08-02T11:10:03.285Z,26.81
2018-08-02T11:11:04.686Z,26.83
2018-08-02T11:12:06.093Z,26.72
2018-08-02T11:13:07.501Z,26.72
2018-08-02T11:14:08.903Z,26.68
2018-08-02T11:15:10.288Z,26.68
2018-08-02T11:16:11.696Z,26.75
2018-08-02T11:17:13.096Z,26.84
2018-08-02T11:18:14.515Z,26.76
2018-08-02T11:19:15.896Z,26.76
2018-08-02T11:20:17.309Z,26.78
2018-08-02T11:21:18.710Z,26.91
2018-08-02T11:22:20.121Z,26.97
2018-08-02T11:23:21.507Z,27.02
2018-08-02T11:24:23.933Z,27.18
2018-08-02T11:25:25.311Z,27.16
2018-08-02T11:26:26.730Z,27.28
2018-08-02T11:27:28.139Z,27.28
2018-08-02T11:28:29.543Z,27.27
2018-08-02T11:29:30.971Z,27.31
2018-08-02T11:30:32.374Z,27.38
2018-08-02T11:31:33.823Z,27.35
2018-08-02T11:32:35.221Z,27.35
2018-08-02T11:33:36.624Z,27.28
2018-08-02T11:34:38.015Z,27.24
2018-08-02T11:35:39.436Z,27.06
2018-08-02T11:36:40.818Z,27.08
2018-08-02T11:37:42.265Z,27.05
2018-08-02T11:38:43.656Z,26.98
2018-08-02T11:39:45.065Z,27.02
2018-08-02T11:40:46.458Z,26.93
2018-08-02T11:41:47.864Z,26.94
2018-08-02T11:42:49.280Z,26.91
2018-08-02T11:43:50.719Z,26.86
2018-08-02T11:44:52.076Z,26.88
2018-08-02T11:45:53.482Z,26.90
2018-08-02T11:46:54.894Z,26.90
2018-08-02T11:47:56.282Z,26.96
2018-08-02T11:48:57.667Z,26.91
2018-08-02T11:49:59.064Z,26.86
2018-08-02T11:51:01.514Z,26.78
2018-08-02T11:52:02.906Z,26.88
2018-08-02T11:53:04.308Z,26.86
2018-08-02T11:54:05.706Z,27.02
2018-08-02T11:55:07.111Z,27.02
2018-08-02T11:56:08.516Z,27.08
2018-08-02T11:57:10.480Z,27.08
2018-08-02T11:58:11.819Z,27.24
2018-08-02T11:59:13.767Z,27.25
2018-08-02T12:00:14.864Z,27.23
2018-08-02T12:01:16.269Z,27.28
2018-08-02T12:02:17.687Z,27.38
2018-08-02T12:03:19.072Z,27.49
2018-08-02T12:04:20.476Z,27.61
2018-08-02T12:05:21.882Z,27.72
2018-08-02T12:06:23.298Z,27.91
2018-08-02T12:07:24.764Z,27.96
2018-08-02T12:08:26.177Z,28.13
2018-08-02T12:09:27.587Z,28.14
2018-08-02T12:10:28.942Z,28.20
2018-08-02T12:11:30.343Z,28.20
2018-08-02T12:12:31.733Z,28.23
2018-08-02T12:13:33.148Z,28.35
2018-08-02T12:14:34.538Z,28.52
2018-08-02T12:15:35.937Z,28.52
2018-08-02T12:16:37.413Z,28.69
2018-08-02T12:17:38.713Z,28.73
2018-08-02T12:18:40.985Z,28.74
2018-08-02T12:19:42.310Z,28.70
2018-08-02T12:20:43.706Z,28.76
2018-08-02T12:21:45.142Z,28.79
2018-08-02T12:22:46.508Z,28.61
2018-08-02T12:23:47.951Z,28.62
2018-08-02T12:24:49.387Z,28.51
2018-08-02T12:25:51.486Z,28.46
2018-08-02T12:26:52.847Z,28.46
2018-08-02T12:27:54.311Z,28.45
2018-08-02T12:28:56.371Z,28.46
2018-08-02T12:29:57.759Z,28.57
2018-08-02T12:30:59.178Z,28.70
2018-08-02T12:32:00.607Z,28.77
2018-08-02T12:33:02.039Z,28.74
2018-08-02T12:34:03.447Z,28.77
2018-08-02T12:35:04.851Z,28.87
2018-08-02T12:36:06.248Z,28.79
2018-08-02T12:37:07.738Z,28.76
2018-08-02T12:38:09.063Z,28.79
2018-08-02T12:39:10.494Z,28.80
2018-08-02T12:40:11.900Z,28.85
2018-08-02T12:41:13.314Z,29.02
2018-08-02T12:42:14.747Z,29.00
2018-08-02T12:43:16.137Z,29.00
2018-08-02T12:44:17.549Z,29.07
2018-08-02T12:45:18.944Z,29.11
2018-08-02T12:46:20.344Z,29.20
2018-08-02T12:47:22.594Z,29.14
2018-08-02T12:48:23.992Z,29.14
2018-08-02T12:49:25.387Z,29.18
2018-08-02T12:50:26.835Z,29.07
2018-08-02T12:51:28.215Z,29.05
2018-08-02T12:52:29.838Z,28.97
2018-08-02T12:53:31.095Z,29.10
2018-08-02T12:54:32.584Z,29.12
2018-08-02T12:55:33.908Z,29.10
2018-08-02T12:56:35.294Z,29.08
2018-08-02T12:57:36.704Z,29.11
2018-08-02T12:58:38.117Z,29.02
2018-08-02T12:59:39.509Z,29.03
2018-08-02T13:00:40.917Z,28.89
2018-08-02T13:01:42.321Z,28.91
2018-08-02T13:02:43.779Z,28.94
2018-08-02T13:03:45.168Z,29.00
2018-08-02T13:04:46.571Z,28.97
2018-08-02T13:05:47.974Z,28.97
2018-08-02T13:06:49.375Z,29.07
2018-08-02T13:07:50.772Z,29.08
2018-08-02T13:08:52.180Z,29.10
2018-08-02T13:09:53.584Z,29.00
2018-08-02T13:10:55.033Z,29.08